sensor_id;sensor_type;location;lat;lon;timestamp;P1;durP1;ratioP1;P2;durP2;ratioP2
66189;SDS011;52992;52.084;5.412;2023-08-01T00:01:53;11.43;;;3.20;;
66189;SDS011;52992;52.084;5.412;2023-08-01T00:04:20;3.40;;;3.03;;
66189;SDS011;52992;52.084;5.412;2023-08-01T00:06:47;6.07;;;3.27;;
66189;SDS011;52992;52.084;5.412;2023-08-01T00:09:14;7.33;;;3.30;;
66189;SDS011;52992;52.084;5.412;2023-08-01T00:11:41;3.80;;;2.83;;
66189;SDS011;52992;52.084;5.412;2023-08-01T00:14:08;3.40;;;2.50;;
66189;SDS011;52992;52.084;5.412;2023-08-01T00:16:35;9.00;;;2.83;;
66189;SDS011;52992;52.084;5.412;2023-08-01T00:19:02;6.10;;;3.00;;
66189;SDS011;52992;52.084;5.412;2023-08-01T00:21:28;6.17;;;2.90;;
66189;SDS011;52992;52.084;5.412;2023-08-01T00:23:58;8.87;;;3.07;;
66189;SDS011;52992;52.084;5.412;2023-08-01T00:26:24;7.00;;;2.90;;
66189;SDS011;52992;52.084;5.412;2023-08-01T00:28:51;5.73;;;2.90;;
66189;SDS011;52992;52.084;5.412;2023-08-01T00:31:18;6.07;;;2.70;;
66189;SDS011;52992;52.084;5.412;2023-08-01T00:33:45;6.03;;;3.40;;
66189;SDS011;52992;52.084;5.412;2023-08-01T00:36:12;4.53;;;2.50;;
66189;SDS011;52992;52.084;5.412;2023-08-01T00:38:39;12.60;;;3.53;;
66189;SDS011;52992;52.084;5.412;2023-08-01T00:41:07;5.03;;;3.23;;
66189;SDS011;52992;52.084;5.412;2023-08-01T00:43:34;9.83;;;2.90;;
66189;SDS011;52992;52.084;5.412;2023-08-01T00:46:02;9.10;;;3.40;;
66189;SDS011;52992;52.084;5.412;2023-08-01T00:48:31;5.57;;;2.90;;
66189;SDS011;52992;52.084;5.412;2023-08-01T00:50:59;6.00;;;2.90;;
66189;SDS011;52992;52.084;5.412;2023-08-01T00:53:29;7.60;;;3.33;;
66189;SDS011;52992;52.084;5.412;2023-08-01T00:55:57;7.50;;;4.10;;
66189;SDS011;52992;52.084;5.412;2023-08-01T00:58:24;8.47;;;4.10;;
66189;SDS011;52992;52.084;5.412;2023-08-01T01:00:52;18.20;;;4.50;;
66189;SDS011;52992;52.084;5.412;2023-08-01T01:03:20;8.33;;;3.60;;
66189;SDS011;52992;52.084;5.412;2023-08-01T01:05:53;7.60;;;3.87;;
66189;SDS011;52992;52.084;5.412;2023-08-01T01:08:26;9.63;;;4.30;;
66189;SDS011;52992;52.084;5.412;2023-08-01T01:10:53;9.67;;;3.90;;
66189;SDS011;52992;52.084;5.412;2023-08-01T01:13:20;10.43;;;4.07;;
66189;SDS011;52992;52.084;5.412;2023-08-01T01:15:47;9.87;;;4.03;;
66189;SDS011;52992;52.084;5.412;2023-08-01T01:18:14;10.23;;;4.37;;
66189;SDS011;52992;52.084;5.412;2023-08-01T01:20:41;8.87;;;4.20;;
66189;SDS011;52992;52.084;5.412;2023-08-01T01:23:08;7.57;;;4.17;;
66189;SDS011;52992;52.084;5.412;2023-08-01T01:25:37;6.70;;;4.57;;
66189;SDS011;52992;52.084;5.412;2023-08-01T01:28:05;8.03;;;4.40;;
66189;SDS011;52992;52.084;5.412;2023-08-01T01:30:33;12.40;;;5.13;;
66189;SDS011;52992;52.084;5.412;2023-08-01T01:33:02;16.23;;;5.93;;
66189;SDS011;52992;52.084;5.412;2023-08-01T01:35:30;10.03;;;5.07;;
66189;SDS011;52992;52.084;5.412;2023-08-01T01:37:59;13.67;;;5.53;;
66189;SDS011;52992;52.084;5.412;2023-08-01T01:40:30;9.30;;;5.37;;
66189;SDS011;52992;52.084;5.412;2023-08-01T01:42:57;9.23;;;5.70;;
66189;SDS011;52992;52.084;5.412;2023-08-01T01:45:25;11.43;;;4.93;;
66189;SDS011;52992;52.084;5.412;2023-08-01T01:47:52;12.77;;;5.50;;
66189;SDS011;52992;52.084;5.412;2023-08-01T01:50:19;12.63;;;5.67;;
66189;SDS011;52992;52.084;5.412;2023-08-01T01:52:46;13.90;;;5.30;;
66189;SDS011;52992;52.084;5.412;2023-08-01T01:55:13;13.17;;;5.87;;
66189;SDS011;52992;52.084;5.412;2023-08-01T01:57:40;11.53;;;5.70;;
66189;SDS011;52992;52.084;5.412;2023-08-01T02:00:07;11.77;;;6.00;;
66189;SDS011;52992;52.084;5.412;2023-08-01T02:02:39;14.40;;;5.80;;
66189;SDS011;52992;52.084;5.412;2023-08-01T02:05:06;17.20;;;6.23;;
66189;SDS011;52992;52.084;5.412;2023-08-01T02:07:33;13.83;;;6.00;;
66189;SDS011;52992;52.084;5.412;2023-08-01T02:10:01;13.13;;;5.83;;
66189;SDS011;52992;52.084;5.412;2023-08-01T02:12:31;13.80;;;6.53;;
66189;SDS011;52992;52.084;5.412;2023-08-01T02:15:01;13.93;;;6.50;;
66189;SDS011;52992;52.084;5.412;2023-08-01T02:17:28;16.53;;;6.83;;
66189;SDS011;52992;52.084;5.412;2023-08-01T02:19:55;11.57;;;5.93;;
66189;SDS011;52992;52.084;5.412;2023-08-01T02:22:23;16.40;;;6.30;;
66189;SDS011;52992;52.084;5.412;2023-08-01T02:24:51;12.43;;;6.77;;
66189;SDS011;52992;52.084;5.412;2023-08-01T02:27:18;15.07;;;7.00;;
66189;SDS011;52992;52.084;5.412;2023-08-01T02:29:45;15.43;;;6.77;;
66189;SDS011;52992;52.084;5.412;2023-08-01T02:32:12;15.23;;;6.70;;
66189;SDS011;52992;52.084;5.412;2023-08-01T02:34:39;15.37;;;6.37;;
66189;SDS011;52992;52.084;5.412;2023-08-01T02:37:06;20.07;;;6.53;;
66189;SDS011;52992;52.084;5.412;2023-08-01T02:39:32;13.60;;;6.33;;
66189;SDS011;52992;52.084;5.412;2023-08-01T02:42:00;14.77;;;6.13;;
66189;SDS011;52992;52.084;5.412;2023-08-01T02:44:27;14.30;;;6.27;;
66189;SDS011;52992;52.084;5.412;2023-08-01T02:46:54;18.23;;;6.50;;
66189;SDS011;52992;52.084;5.412;2023-08-01T02:49:22;14.00;;;7.00;;
66189;SDS011;52992;52.084;5.412;2023-08-01T02:51:49;13.70;;;6.20;;
66189;SDS011;52992;52.084;5.412;2023-08-01T02:54:15;13.90;;;6.23;;
66189;SDS011;52992;52.084;5.412;2023-08-01T02:56:42;17.73;;;5.73;;
66189;SDS011;52992;52.084;5.412;2023-08-01T02:59:09;12.67;;;6.63;;
66189;SDS011;52992;52.084;5.412;2023-08-01T03:01:37;19.40;;;7.27;;
66189;SDS011;52992;52.084;5.412;2023-08-01T03:04:05;15.60;;;6.83;;
66189;SDS011;52992;52.084;5.412;2023-08-01T03:06:33;18.53;;;6.83;;
66189;SDS011;52992;52.084;5.412;2023-08-01T03:09:00;17.17;;;6.53;;
66189;SDS011;52992;52.084;5.412;2023-08-01T03:11:27;14.23;;;6.50;;
66189;SDS011;52992;52.084;5.412;2023-08-01T03:13:54;9.83;;;6.07;;
66189;SDS011;52992;52.084;5.412;2023-08-01T03:16:21;6.90;;;5.00;;
66189;SDS011;52992;52.084;5.412;2023-08-01T03:18:48;17.53;;;5.03;;
66189;SDS011;52992;52.084;5.412;2023-08-01T03:21:15;12.73;;;5.10;;
66189;SDS011;52992;52.084;5.412;2023-08-01T03:23:42;12.40;;;4.70;;
66189;SDS011;52992;52.084;5.412;2023-08-01T03:26:09;15.00;;;4.90;;
66189;SDS011;52992;52.084;5.412;2023-08-01T03:28:36;8.17;;;5.00;;
66189;SDS011;52992;52.084;5.412;2023-08-01T03:31:05;11.90;;;4.33;;
66189;SDS011;52992;52.084;5.412;2023-08-01T03:33:32;9.40;;;4.40;;
66189;SDS011;52992;52.084;5.412;2023-08-01T03:36:00;18.03;;;4.60;;
66189;SDS011;52992;52.084;5.412;2023-08-01T03:38:27;8.53;;;4.10;;
66189;SDS011;52992;52.084;5.412;2023-08-01T03:40:54;13.57;;;4.93;;
66189;SDS011;52992;52.084;5.412;2023-08-01T03:43:21;12.27;;;4.40;;
66189;SDS011;52992;52.084;5.412;2023-08-01T03:45:50;8.77;;;5.13;;
66189;SDS011;52992;52.084;5.412;2023-08-01T03:48:17;14.83;;;4.97;;
66189;SDS011;52992;52.084;5.412;2023-08-01T03:50:44;11.67;;;4.97;;
66189;SDS011;52992;52.084;5.412;2023-08-01T03:53:11;14.93;;;5.60;;
66189;SDS011;52992;52.084;5.412;2023-08-01T03:55:38;12.27;;;4.67;;
66189;SDS011;52992;52.084;5.412;2023-08-01T03:58:07;11.77;;;4.07;;
66189;SDS011;52992;52.084;5.412;2023-08-01T04:00:34;8.90;;;3.77;;
66189;SDS011;52992;52.084;5.412;2023-08-01T04:03:01;8.60;;;3.63;;
66189;SDS011;52992;52.084;5.412;2023-08-01T04:05:28;8.60;;;3.60;;
66189;SDS011;52992;52.084;5.412;2023-08-01T04:07:55;9.50;;;3.97;;
66189;SDS011;52992;52.084;5.412;2023-08-01T04:10:22;10.50;;;3.67;;
66189;SDS011;52992;52.084;5.412;2023-08-01T04:12:49;16.97;;;3.60;;
66189;SDS011;52992;52.084;5.412;2023-08-01T04:15:16;9.10;;;3.40;;
66189;SDS011;52992;52.084;5.412;2023-08-01T04:17:43;5.93;;;3.53;;
66189;SDS011;52992;52.084;5.412;2023-08-01T04:20:10;5.33;;;3.20;;
66189;SDS011;52992;52.084;5.412;2023-08-01T04:22:38;7.73;;;4.13;;
66189;SDS011;52992;52.084;5.412;2023-08-01T04:25:05;9.60;;;4.33;;
66189;SDS011;52992;52.084;5.412;2023-08-01T04:27:33;10.83;;;4.53;;
66189;SDS011;52992;52.084;5.412;2023-08-01T04:30:00;8.70;;;5.07;;
66189;SDS011;52992;52.084;5.412;2023-08-01T04:32:27;9.17;;;4.70;;
66189;SDS011;52992;52.084;5.412;2023-08-01T04:34:54;14.43;;;4.93;;
66189;SDS011;52992;52.084;5.412;2023-08-01T04:37:21;8.23;;;4.50;;
66189;SDS011;52992;52.084;5.412;2023-08-01T04:39:49;10.37;;;4.80;;
66189;SDS011;52992;52.084;5.412;2023-08-01T04:42:16;9.53;;;4.90;;
66189;SDS011;52992;52.084;5.412;2023-08-01T04:44:43;13.63;;;5.13;;
66189;SDS011;52992;52.084;5.412;2023-08-01T04:47:10;13.57;;;5.47;;
66189;SDS011;52992;52.084;5.412;2023-08-01T04:49:37;29.40;;;5.33;;
66189;SDS011;52992;52.084;5.412;2023-08-01T04:52:04;12.53;;;4.80;;
66189;SDS011;52992;52.084;5.412;2023-08-01T04:54:34;18.23;;;4.93;;
66189;SDS011;52992;52.084;5.412;2023-08-01T04:57:00;11.50;;;4.80;;
66189;SDS011;52992;52.084;5.412;2023-08-01T04:59:27;11.10;;;4.53;;
66189;SDS011;52992;52.084;5.412;2023-08-01T05:01:55;16.67;;;5.23;;
66189;SDS011;52992;52.084;5.412;2023-08-01T05:04:21;12.97;;;5.27;;
66189;SDS011;52992;52.084;5.412;2023-08-01T05:06:48;11.60;;;5.10;;
66189;SDS011;52992;52.084;5.412;2023-08-01T05:09:15;17.73;;;5.70;;
66189;SDS011;52992;52.084;5.412;2023-08-01T05:11:42;19.60;;;5.53;;
66189;SDS011;52992;52.084;5.412;2023-08-01T05:14:09;9.60;;;5.40;;
66189;SDS011;52992;52.084;5.412;2023-08-01T05:16:36;18.13;;;5.43;;
66189;SDS011;52992;52.084;5.412;2023-08-01T05:19:03;17.10;;;5.13;;
66189;SDS011;52992;52.084;5.412;2023-08-01T05:21:31;14.63;;;5.33;;
66189;SDS011;52992;52.084;5.412;2023-08-01T05:23:57;13.57;;;5.53;;
66189;SDS011;52992;52.084;5.412;2023-08-01T05:26:24;14.83;;;5.83;;
66189;SDS011;52992;52.084;5.412;2023-08-01T05:28:51;14.13;;;5.47;;
66189;SDS011;52992;52.084;5.412;2023-08-01T05:31:18;11.70;;;4.93;;
66189;SDS011;52992;52.084;5.412;2023-08-01T05:33:45;13.87;;;5.30;;
66189;SDS011;52992;52.084;5.412;2023-08-01T05:36:12;17.23;;;5.23;;
66189;SDS011;52992;52.084;5.412;2023-08-01T05:38:39;18.30;;;5.33;;
66189;SDS011;52992;52.084;5.412;2023-08-01T05:41:06;15.37;;;5.47;;
66189;SDS011;52992;52.084;5.412;2023-08-01T05:43:33;16.30;;;5.20;;
66189;SDS011;52992;52.084;5.412;2023-08-01T05:46:00;17.77;;;5.50;;
66189;SDS011;52992;52.084;5.412;2023-08-01T05:48:26;13.57;;;5.97;;
66189;SDS011;52992;52.084;5.412;2023-08-01T05:50:53;18.83;;;5.73;;
66189;SDS011;52992;52.084;5.412;2023-08-01T05:53:22;8.77;;;5.03;;
66189;SDS011;52992;52.084;5.412;2023-08-01T05:55:48;19.20;;;5.23;;
66189;SDS011;52992;52.084;5.412;2023-08-01T05:58:16;22.13;;;6.03;;
66189;SDS011;52992;52.084;5.412;2023-08-01T06:00:43;14.53;;;4.93;;
66189;SDS011;52992;52.084;5.412;2023-08-01T06:03:10;15.00;;;5.33;;
66189;SDS011;52992;52.084;5.412;2023-08-01T06:05:37;8.73;;;5.00;;
66189;SDS011;52992;52.084;5.412;2023-08-01T06:08:05;16.87;;;4.70;;
66189;SDS011;52992;52.084;5.412;2023-08-01T06:10:37;13.90;;;5.07;;
66189;SDS011;52992;52.084;5.412;2023-08-01T06:13:04;18.10;;;5.10;;
66189;SDS011;52992;52.084;5.412;2023-08-01T06:15:31;10.50;;;4.70;;
66189;SDS011;52992;52.084;5.412;2023-08-01T06:17:58;14.10;;;4.83;;
66189;SDS011;52992;52.084;5.412;2023-08-01T06:20:25;13.57;;;4.87;;
66189;SDS011;52992;52.084;5.412;2023-08-01T06:22:52;13.40;;;5.53;;
66189;SDS011;52992;52.084;5.412;2023-08-01T06:25:19;11.37;;;4.77;;
66189;SDS011;52992;52.084;5.412;2023-08-01T06:27:45;9.13;;;3.97;;
66189;SDS011;52992;52.084;5.412;2023-08-01T06:30:12;9.57;;;4.30;;
66189;SDS011;52992;52.084;5.412;2023-08-01T06:32:39;11.33;;;4.57;;
66189;SDS011;52992;52.084;5.412;2023-08-01T06:35:06;10.97;;;4.30;;
66189;SDS011;52992;52.084;5.412;2023-08-01T06:37:34;17.03;;;4.80;;
66189;SDS011;52992;52.084;5.412;2023-08-01T06:40:01;11.73;;;4.73;;
66189;SDS011;52992;52.084;5.412;2023-08-01T06:42:28;10.40;;;4.30;;
66189;SDS011;52992;52.084;5.412;2023-08-01T06:44:55;11.73;;;4.40;;
66189;SDS011;52992;52.084;5.412;2023-08-01T06:47:22;8.50;;;3.93;;
66189;SDS011;52992;52.084;5.412;2023-08-01T06:49:49;7.83;;;4.17;;
66189;SDS011;52992;52.084;5.412;2023-08-01T06:52:16;10.37;;;3.80;;
66189;SDS011;52992;52.084;5.412;2023-08-01T06:54:43;12.13;;;4.27;;
66189;SDS011;52992;52.084;5.412;2023-08-01T06:57:10;10.30;;;4.00;;
66189;SDS011;52992;52.084;5.412;2023-08-01T06:59:36;11.40;;;4.20;;
66189;SDS011;52992;52.084;5.412;2023-08-01T07:02:03;6.90;;;3.77;;
66189;SDS011;52992;52.084;5.412;2023-08-01T07:04:31;9.37;;;3.60;;
66189;SDS011;52992;52.084;5.412;2023-08-01T07:06:58;11.43;;;3.77;;
66189;SDS011;52992;52.084;5.412;2023-08-01T07:09:25;9.20;;;3.87;;
66189;SDS011;52992;52.084;5.412;2023-08-01T07:11:52;12.77;;;4.43;;
66189;SDS011;52992;52.084;5.412;2023-08-01T07:14:18;9.23;;;3.70;;
66189;SDS011;52992;52.084;5.412;2023-08-01T07:16:45;9.47;;;4.10;;
66189;SDS011;52992;52.084;5.412;2023-08-01T07:19:12;9.27;;;3.70;;
66189;SDS011;52992;52.084;5.412;2023-08-01T07:21:39;8.03;;;3.47;;
66189;SDS011;52992;52.084;5.412;2023-08-01T07:24:06;9.37;;;3.87;;
66189;SDS011;52992;52.084;5.412;2023-08-01T07:26:33;10.17;;;3.90;;
66189;SDS011;52992;52.084;5.412;2023-08-01T07:29:00;7.70;;;3.97;;
66189;SDS011;52992;52.084;5.412;2023-08-01T07:31:27;7.77;;;3.47;;
66189;SDS011;52992;52.084;5.412;2023-08-01T07:33:54;7.47;;;3.43;;
66189;SDS011;52992;52.084;5.412;2023-08-01T07:36:21;9.37;;;3.60;;
66189;SDS011;52992;52.084;5.412;2023-08-01T07:38:48;7.07;;;3.10;;
66189;SDS011;52992;52.084;5.412;2023-08-01T07:41:15;8.83;;;3.87;;
66189;SDS011;52992;52.084;5.412;2023-08-01T07:43:42;6.33;;;3.17;;
66189;SDS011;52992;52.084;5.412;2023-08-01T07:46:09;9.00;;;3.13;;
66189;SDS011;52992;52.084;5.412;2023-08-01T07:48:38;9.50;;;3.57;;
66189;SDS011;52992;52.084;5.412;2023-08-01T07:51:05;6.97;;;3.67;;
66189;SDS011;52992;52.084;5.412;2023-08-01T07:53:34;7.37;;;3.13;;
66189;SDS011;52992;52.084;5.412;2023-08-01T07:56:01;11.57;;;3.37;;
66189;SDS011;52992;52.084;5.412;2023-08-01T07:58:29;7.20;;;3.60;;
66189;SDS011;52992;52.084;5.412;2023-08-01T08:00:56;9.17;;;4.10;;
66189;SDS011;52992;52.084;5.412;2023-08-01T08:03:23;9.03;;;4.57;;
66189;SDS011;52992;52.084;5.412;2023-08-01T08:05:50;6.33;;;3.73;;
66189;SDS011;52992;52.084;5.412;2023-08-01T08:08:17;13.70;;;3.80;;
66189;SDS011;52992;52.084;5.412;2023-08-01T08:10:44;12.17;;;3.90;;
66189;SDS011;52992;52.084;5.412;2023-08-01T08:13:11;5.37;;;3.10;;
66189;SDS011;52992;52.084;5.412;2023-08-01T08:15:38;8.93;;;3.93;;
66189;SDS011;52992;52.084;5.412;2023-08-01T08:18:05;7.33;;;3.73;;
66189;SDS011;52992;52.084;5.412;2023-08-01T08:20:34;6.83;;;3.73;;
66189;SDS011;52992;52.084;5.412;2023-08-01T08:23:08;8.07;;;3.43;;
66189;SDS011;52992;52.084;5.412;2023-08-01T08:25:35;6.90;;;3.00;;
66189;SDS011;52992;52.084;5.412;2023-08-01T08:28:02;4.57;;;2.67;;
66189;SDS011;52992;52.084;5.412;2023-08-01T08:30:29;10.37;;;3.30;;
66189;SDS011;52992;52.084;5.412;2023-08-01T08:32:57;7.17;;;3.03;;
66189;SDS011;52992;52.084;5.412;2023-08-01T08:35:24;5.20;;;2.73;;
66189;SDS011;52992;52.084;5.412;2023-08-01T08:37:51;7.60;;;3.57;;
66189;SDS011;52992;52.084;5.412;2023-08-01T08:40:18;7.77;;;3.30;;
66189;SDS011;52992;52.084;5.412;2023-08-01T08:42:45;8.00;;;2.97;;
66189;SDS011;52992;52.084;5.412;2023-08-01T08:45:14;6.13;;;3.30;;
66189;SDS011;52992;52.084;5.412;2023-08-01T08:47:45;5.47;;;2.70;;
66189;SDS011;52992;52.084;5.412;2023-08-01T08:50:24;6.10;;;3.03;;
66189;SDS011;52992;52.084;5.412;2023-08-01T08:52:54;5.53;;;3.00;;
66189;SDS011;52992;52.084;5.412;2023-08-01T08:55:21;6.20;;;2.90;;
66189;SDS011;52992;52.084;5.412;2023-08-01T08:57:49;6.67;;;2.80;;
66189;SDS011;52992;52.084;5.412;2023-08-01T09:00:18;5.40;;;2.80;;
66189;SDS011;52992;52.084;5.412;2023-08-01T09:02:47;5.20;;;2.40;;
66189;SDS011;52992;52.084;5.412;2023-08-01T09:05:14;6.43;;;3.10;;
66189;SDS011;52992;52.084;5.412;2023-08-01T09:07:42;3.83;;;2.33;;
66189;SDS011;52992;52.084;5.412;2023-08-01T09:10:12;9.43;;;2.80;;
66189;SDS011;52992;52.084;5.412;2023-08-01T09:12:39;7.23;;;3.30;;
66189;SDS011;52992;52.084;5.412;2023-08-01T09:15:06;7.50;;;3.07;;
66189;SDS011;52992;52.084;5.412;2023-08-01T09:17:35;4.43;;;3.30;;
66189;SDS011;52992;52.084;5.412;2023-08-01T09:20:05;5.97;;;3.00;;
66189;SDS011;52992;52.084;5.412;2023-08-01T09:22:45;6.17;;;2.93;;
66189;SDS011;52992;52.084;5.412;2023-08-01T09:25:13;2.87;;;1.97;;
66189;SDS011;52992;52.084;5.412;2023-08-01T09:27:40;6.30;;;2.80;;
66189;SDS011;52992;52.084;5.412;2023-08-01T09:30:07;7.67;;;2.57;;
66189;SDS011;52992;52.084;5.412;2023-08-01T09:32:53;7.73;;;2.80;;
66189;SDS011;52992;52.084;5.412;2023-08-01T09:35:20;4.80;;;2.30;;
66189;SDS011;52992;52.084;5.412;2023-08-01T09:37:48;3.70;;;2.30;;
66189;SDS011;52992;52.084;5.412;2023-08-01T09:40:15;3.83;;;2.57;;
66189;SDS011;52992;52.084;5.412;2023-08-01T09:42:43;4.63;;;2.50;;
66189;SDS011;52992;52.084;5.412;2023-08-01T09:45:14;5.10;;;2.77;;
66189;SDS011;52992;52.084;5.412;2023-08-01T09:47:45;7.00;;;2.60;;
66189;SDS011;52992;52.084;5.412;2023-08-01T09:50:22;5.50;;;2.70;;
66189;SDS011;52992;52.084;5.412;2023-08-01T09:52:49;6.83;;;2.87;;
66189;SDS011;52992;52.084;5.412;2023-08-01T09:55:21;4.57;;;2.63;;
66189;SDS011;52992;52.084;5.412;2023-08-01T09:57:58;8.37;;;2.60;;
66189;SDS011;52992;52.084;5.412;2023-08-01T10:00:26;5.77;;;2.40;;
66189;SDS011;52992;52.084;5.412;2023-08-01T10:02:57;7.93;;;2.80;;
66189;SDS011;52992;52.084;5.412;2023-08-01T10:05:30;7.53;;;2.37;;
66189;SDS011;52992;52.084;5.412;2023-08-01T10:08:00;5.33;;;2.60;;
66189;SDS011;52992;52.084;5.412;2023-08-01T10:10:27;4.97;;;2.60;;
66189;SDS011;52992;52.084;5.412;2023-08-01T10:12:58;7.90;;;2.63;;
66189;SDS011;52992;52.084;5.412;2023-08-01T10:15:28;9.97;;;3.90;;
66189;SDS011;52992;52.084;5.412;2023-08-01T10:17:56;5.50;;;2.40;;
66189;SDS011;52992;52.084;5.412;2023-08-01T10:20:24;5.57;;;2.20;;
66189;SDS011;52992;52.084;5.412;2023-08-01T10:22:51;5.10;;;2.20;;
66189;SDS011;52992;52.084;5.412;2023-08-01T10:25:19;5.30;;;2.33;;
66189;SDS011;52992;52.084;5.412;2023-08-01T10:28:00;5.93;;;2.37;;
66189;SDS011;52992;52.084;5.412;2023-08-01T10:30:29;4.80;;;2.53;;
66189;SDS011;52992;52.084;5.412;2023-08-01T10:32:56;5.27;;;2.47;;
66189;SDS011;52992;52.084;5.412;2023-08-01T10:35:35;6.60;;;2.73;;
66189;SDS011;52992;52.084;5.412;2023-08-01T10:38:04;3.77;;;2.20;;
66189;SDS011;52992;52.084;5.412;2023-08-01T10:43:21;4.20;;;2.23;;
66189;SDS011;52992;52.084;5.412;2023-08-01T10:46:04;4.63;;;2.20;;
66189;SDS011;52992;52.084;5.412;2023-08-01T10:48:31;8.87;;;2.80;;
66189;SDS011;52992;52.084;5.412;2023-08-01T10:50:58;3.37;;;1.97;;
66189;SDS011;52992;52.084;5.412;2023-08-01T10:53:25;5.87;;;2.70;;
66189;SDS011;52992;52.084;5.412;2023-08-01T10:56:14;4.30;;;2.30;;
66189;SDS011;52992;52.084;5.412;2023-08-01T10:58:43;3.60;;;2.10;;
66189;SDS011;52992;52.084;5.412;2023-08-01T11:01:10;3.40;;;2.40;;
66189;SDS011;52992;52.084;5.412;2023-08-01T11:03:37;5.20;;;2.00;;
66189;SDS011;52992;52.084;5.412;2023-08-01T11:06:05;2.20;;;2.00;;
66189;SDS011;52992;52.084;5.412;2023-08-01T11:08:39;4.50;;;1.90;;
66189;SDS011;52992;52.084;5.412;2023-08-01T11:11:07;3.47;;;1.90;;
66189;SDS011;52992;52.084;5.412;2023-08-01T11:13:40;5.90;;;2.30;;
66189;SDS011;52992;52.084;5.412;2023-08-01T11:16:07;6.03;;;1.97;;
66189;SDS011;52992;52.084;5.412;2023-08-01T11:18:42;4.73;;;2.10;;
66189;SDS011;52992;52.084;5.412;2023-08-01T11:21:09;4.70;;;2.00;;
66189;SDS011;52992;52.084;5.412;2023-08-01T11:23:36;6.17;;;2.13;;
66189;SDS011;52992;52.084;5.412;2023-08-01T11:26:07;6.20;;;2.13;;
66189;SDS011;52992;52.084;5.412;2023-08-01T11:28:35;7.00;;;2.40;;
66189;SDS011;52992;52.084;5.412;2023-08-01T11:31:10;5.17;;;1.80;;
66189;SDS011;52992;52.084;5.412;2023-08-01T11:33:39;4.90;;;2.37;;
66189;SDS011;52992;52.084;5.412;2023-08-01T11:36:06;6.33;;;2.47;;
66189;SDS011;52992;52.084;5.412;2023-08-01T11:38:34;8.00;;;2.70;;
66189;SDS011;52992;52.084;5.412;2023-08-01T11:41:03;3.97;;;2.00;;
66189;SDS011;52992;52.084;5.412;2023-08-01T11:43:40;6.80;;;2.23;;
66189;SDS011;52992;52.084;5.412;2023-08-01T11:46:08;7.13;;;2.47;;
66189;SDS011;52992;52.084;5.412;2023-08-01T11:48:36;7.03;;;2.50;;
66189;SDS011;52992;52.084;5.412;2023-08-01T11:51:03;3.67;;;2.30;;
66189;SDS011;52992;52.084;5.412;2023-08-01T11:53:30;5.20;;;2.63;;
66189;SDS011;52992;52.084;5.412;2023-08-01T11:56:07;5.00;;;2.43;;
66189;SDS011;52992;52.084;5.412;2023-08-01T11:58:35;6.50;;;2.00;;
66189;SDS011;52992;52.084;5.412;2023-08-01T12:01:07;3.73;;;2.00;;
66189;SDS011;52992;52.084;5.412;2023-08-01T12:03:42;7.37;;;2.10;;
66189;SDS011;52992;52.084;5.412;2023-08-01T12:06:18;4.10;;;2.07;;
66189;SDS011;52992;52.084;5.412;2023-08-01T12:08:46;4.90;;;2.07;;
66189;SDS011;52992;52.084;5.412;2023-08-01T12:14:11;4.73;;;2.37;;
66189;SDS011;52992;52.084;5.412;2023-08-01T12:16:41;4.77;;;2.03;;
66189;SDS011;52992;52.084;5.412;2023-08-01T12:19:19;4.20;;;2.17;;
66189;SDS011;52992;52.084;5.412;2023-08-01T12:21:47;5.67;;;2.20;;
66189;SDS011;52992;52.084;5.412;2023-08-01T12:24:14;7.37;;;2.23;;
66189;SDS011;52992;52.084;5.412;2023-08-01T12:26:41;5.40;;;2.20;;
66189;SDS011;52992;52.084;5.412;2023-08-01T12:29:09;4.83;;;2.20;;
66189;SDS011;52992;52.084;5.412;2023-08-01T12:31:36;5.20;;;2.00;;
66189;SDS011;52992;52.084;5.412;2023-08-01T12:34:04;8.83;;;2.30;;
66189;SDS011;52992;52.084;5.412;2023-08-01T12:36:30;6.37;;;2.20;;
66189;SDS011;52992;52.084;5.412;2023-08-01T12:38:57;6.73;;;2.47;;
66189;SDS011;52992;52.084;5.412;2023-08-01T12:41:24;5.27;;;2.20;;
66189;SDS011;52992;52.084;5.412;2023-08-01T12:43:52;6.17;;;2.50;;
66189;SDS011;52992;52.084;5.412;2023-08-01T12:46:18;5.13;;;2.10;;
66189;SDS011;52992;52.084;5.412;2023-08-01T12:48:45;6.50;;;2.20;;
66189;SDS011;52992;52.084;5.412;2023-08-01T12:51:13;6.23;;;2.53;;
66189;SDS011;52992;52.084;5.412;2023-08-01T12:53:41;3.47;;;1.80;;
66189;SDS011;52992;52.084;5.412;2023-08-01T12:56:11;5.73;;;2.23;;
66189;SDS011;52992;52.084;5.412;2023-08-01T12:58:38;6.70;;;1.90;;
66189;SDS011;52992;52.084;5.412;2023-08-01T13:01:05;3.63;;;1.87;;
66189;SDS011;52992;52.084;5.412;2023-08-01T13:03:32;5.63;;;2.00;;
66189;SDS011;52992;52.084;5.412;2023-08-01T13:05:59;3.67;;;1.60;;
66189;SDS011;52992;52.084;5.412;2023-08-01T13:08:26;4.47;;;1.60;;
66189;SDS011;52992;52.084;5.412;2023-08-01T13:10:55;3.97;;;1.83;;
66189;SDS011;52992;52.084;5.412;2023-08-01T13:13:22;4.60;;;2.00;;
66189;SDS011;52992;52.084;5.412;2023-08-01T13:15:50;4.00;;;2.03;;
66189;SDS011;52992;52.084;5.412;2023-08-01T13:18:17;4.97;;;2.10;;
66189;SDS011;52992;52.084;5.412;2023-08-01T13:20:44;5.80;;;2.33;;
66189;SDS011;52992;52.084;5.412;2023-08-01T13:23:11;5.43;;;2.03;;
66189;SDS011;52992;52.084;5.412;2023-08-01T13:25:38;5.73;;;2.40;;
66189;SDS011;52992;52.084;5.412;2023-08-01T13:28:05;4.77;;;2.17;;
66189;SDS011;52992;52.084;5.412;2023-08-01T13:30:32;6.73;;;2.73;;
66189;SDS011;52992;52.084;5.412;2023-08-01T13:32:59;3.63;;;2.47;;
66189;SDS011;52992;52.084;5.412;2023-08-01T13:35:26;7.73;;;2.90;;
66189;SDS011;52992;52.084;5.412;2023-08-01T13:37:53;5.80;;;2.87;;
66189;SDS011;52992;52.084;5.412;2023-08-01T13:40:20;6.97;;;2.70;;
66189;SDS011;52992;52.084;5.412;2023-08-01T13:42:47;7.80;;;2.70;;
66189;SDS011;52992;52.084;5.412;2023-08-01T13:45:14;3.00;;;2.37;;
66189;SDS011;52992;52.084;5.412;2023-08-01T13:47:41;8.03;;;3.03;;
66189;SDS011;52992;52.084;5.412;2023-08-01T13:50:08;5.03;;;2.67;;
66189;SDS011;52992;52.084;5.412;2023-08-01T13:52:38;5.47;;;2.47;;
66189;SDS011;52992;52.084;5.412;2023-08-01T13:55:05;4.83;;;1.97;;
66189;SDS011;52992;52.084;5.412;2023-08-01T13:57:33;5.90;;;2.33;;
66189;SDS011;52992;52.084;5.412;2023-08-01T14:00:00;5.20;;;2.30;;
66189;SDS011;52992;52.084;5.412;2023-08-01T14:02:40;6.43;;;2.10;;
66189;SDS011;52992;52.084;5.412;2023-08-01T14:05:08;6.97;;;2.10;;
66189;SDS011;52992;52.084;5.412;2023-08-01T14:07:36;4.27;;;2.40;;
66189;SDS011;52992;52.084;5.412;2023-08-01T14:10:09;5.27;;;2.07;;
66189;SDS011;52992;52.084;5.412;2023-08-01T14:12:36;5.30;;;2.30;;
66189;SDS011;52992;52.084;5.412;2023-08-01T14:15:03;3.23;;;2.07;;
66189;SDS011;52992;52.084;5.412;2023-08-01T14:17:30;6.17;;;2.10;;
66189;SDS011;52992;52.084;5.412;2023-08-01T14:19:57;4.67;;;2.10;;
66189;SDS011;52992;52.084;5.412;2023-08-01T14:22:25;5.53;;;2.20;;
66189;SDS011;52992;52.084;5.412;2023-08-01T14:24:52;5.73;;;2.33;;
66189;SDS011;52992;52.084;5.412;2023-08-01T14:27:19;8.03;;;2.40;;
66189;SDS011;52992;52.084;5.412;2023-08-01T14:29:45;2.97;;;1.83;;
66189;SDS011;52992;52.084;5.412;2023-08-01T14:32:13;6.27;;;1.93;;
66189;SDS011;52992;52.084;5.412;2023-08-01T14:34:42;6.67;;;2.03;;
66189;SDS011;52992;52.084;5.412;2023-08-01T14:37:09;5.03;;;2.20;;
66189;SDS011;52992;52.084;5.412;2023-08-01T14:39:36;7.60;;;2.10;;
66189;SDS011;52992;52.084;5.412;2023-08-01T14:42:03;6.80;;;2.20;;
66189;SDS011;52992;52.084;5.412;2023-08-01T14:44:31;4.37;;;1.73;;
66189;SDS011;52992;52.084;5.412;2023-08-01T14:46:58;6.27;;;2.40;;
66189;SDS011;52992;52.084;5.412;2023-08-01T14:49:25;4.10;;;2.00;;
66189;SDS011;52992;52.084;5.412;2023-08-01T14:51:56;4.10;;;1.73;;
66189;SDS011;52992;52.084;5.412;2023-08-01T14:54:22;5.47;;;2.30;;